Time,TemperatureF,DewpointF,PressureIn,WindDirection,WindDirectionDegrees,WindSpeedMPH,WindSpeedGustMPH,Humidity,HourlyPrecipIn,Conditions,Clouds,dailyrainin,SoftwareType,DateUTC
2013-05-04 00:00:00,33.5,31.2,30.00,NNE,20,11.0,11.0,91,0.00,,,0.47,VWS V12.07,2013-05-04 05:00:00,
2013-05-04 00:30:00,33.5,31.2,29.99,NNE,20,11.0,11.0,91,0.00,,,0.47,VWS V12.07,2013-05-04 05:30:00,
2013-05-04 00:45:00,33.5,31.2,29.98,NNE,20,11.0,11.0,91,0.00,,,0.00,VWS V12.07,2013-05-04 05:45:00,
2013-05-04 01:00:00,33.5,31.2,30.03,NNE,20,11.0,11.0,91,0.00,,,0.00,VWS V12.07,2013-05-04 06:00:00,
2013-05-04 01:15:00,33.5,31.2,30.03,NNE,20,11.0,11.0,91,0.00,,,0.00,VWS V12.07,2013-05-04 06:15:00,
2013-05-04 01:30:00,33.5,31.2,30.03,NNE,20,11.0,11.0,91,0.00,,,0.00,VWS V12.07,2013-05-04 06:30:00,
2013-05-04 01:45:00,33.5,31.2,30.02,NNE,20,11.0,11.0,91,0.00,,,0.00,VWS V12.07,2013-05-04 06:45:00,
2013-05-04 02:00:00,33.5,31.2,30.01,NNE,20,11.0,11.0,91,0.00,,,0.00,VWS V12.07,2013-05-04 07:00:00,
2013-05-04 02:15:00,33.5,31.2,30.01,NNE,20,11.0,11.0,91,0.00,,,0.00,VWS V12.07,2013-05-04 07:15:00,
2013-05-04 02:30:00,33.5,31.2,30.01,NNE,20,11.0,11.0,91,0.00,,,0.00,VWS V12.07,2013-05-04 07:30:00,
2013-05-04 02:45:00,33.5,31.2,30.02,NNE,20,11.0,11.0,91,0.00,,,0.00,VWS V12.07,2013-05-04 07:45:00,
2013-05-04 03:00:00,33.5,31.2,30.01,NNE,20,11.0,11.0,91,0.00,,,0.00,VWS V12.07,2013-05-04 08:00:00,
2013-05-04 03:15:00,33.5,31.2,30.00,NNE,20,11.0,11.0,91,0.00,,,0.00,VWS V12.07,2013-05-04 08:15:00,
2013-05-04 03:30:00,33.5,31.2,30.01,NNE,20,11.0,11.0,91,0.00,,,0.00,VWS V12.07,2013-05-04 08:30:00,
2013-05-04 03:45:00,33.5,31.2,30.01,NNE,20,11.0,11.0,91,0.00,,,0.00,VWS V12.07,2013-05-04 08:45:00,
2013-05-04 04:00:00,33.5,31.2,30.01,NNE,20,11.0,11.0,91,0.00,,,0.00,VWS V12.07,2013-05-04 09:00:00,
2013-05-04 04:30:00,33.5,31.2,30.02,NNE,20,11.0,11.0,91,0.00,,,0.00,VWS V12.07,2013-05-04 09:30:00,
2013-05-04 04:45:00,33.5,31.2,30.01,NNE,20,11.0,11.0,91,0.00,,,0.00,VWS V12.07,2013-05-04 09:45:00,
2013-05-04 05:00:00,33.5,31.2,30.01,NNE,20,11.0,11.0,91,0.00,,,0.00,VWS V12.07,2013-05-04 10:00:00,
2013-05-04 05:30:00,33.5,31.2,30.01,NNE,20,11.0,11.0,91,0.00,,,0.00,VWS V12.07,2013-05-04 10:30:00,
2013-05-04 05:45:00,33.5,31.2,30.01,NNE,20,11.0,11.0,91,0.00,,,0.00,VWS V12.07,2013-05-04 10:45:00,
2013-05-04 06:00:00,33.5,31.2,30.01,NNE,20,11.0,11.0,91,0.00,,,0.00,VWS V12.07,2013-05-04 11:00:00,
2013-05-04 06:30:00,33.5,31.2,30.02,NNE,20,11.0,11.0,91,0.00,,,0.00,VWS V12.07,2013-05-04 11:30:00,
2013-05-04 06:45:00,33.5,31.2,30.03,NNE,20,11.0,11.0,91,0.00,,,0.00,VWS V12.07,2013-05-04 11:45:00,
2013-05-04 07:00:00,33.5,31.2,30.03,NNE,20,11.0,11.0,91,0.00,,,0.00,VWS V12.07,2013-05-04 12:00:00,
2013-05-04 07:30:00,33.5,31.2,30.03,NNE,20,11.0,11.0,91,0.00,,,0.00,VWS V12.07,2013-05-04 12:30:00,
2013-05-04 07:45:00,33.5,31.2,30.03,NNE,20,11.0,11.0,91,0.00,,,0.00,VWS V12.07,2013-05-04 12:45:00,
2013-05-04 08:00:00,33.5,31.2,29.99,NNE,20,11.0,11.0,91,0.00,,,0.00,VWS V12.07,2013-05-04 13:00:00,
2013-05-04 08:30:00,33.5,31.2,29.99,NNE,20,11.0,11.0,91,0.00,,,0.00,VWS V12.07,2013-05-04 13:30:00,
2013-05-04 08:45:00,33.5,31.2,30.00,NNE,20,11.0,11.0,91,0.00,,,0.00,VWS V12.07,2013-05-04 13:45:00,
2013-05-04 09:00:00,33.5,31.2,29.99,NNE,20,11.0,11.0,91,0.00,,,0.00,VWS V12.07,2013-05-04 14:00:00,
2013-05-04 09:30:00,33.5,31.2,30.00,NNE,20,11.0,11.0,91,0.00,,,0.00,VWS V12.07,2013-05-04 14:30:00,
2013-05-04 09:45:00,33.5,31.2,30.00,NNE,20,11.0,11.0,91,0.00,,,0.00,VWS V12.07,2013-05-04 14:45:00,
2013-05-04 10:00:00,33.5,31.2,29.99,NNE,20,11.0,11.0,91,0.00,,,0.00,VWS V12.07,2013-05-04 15:00:00,
2013-05-04 10:30:00,40.2,36.3,30.03,North,355,6.0,6.0,86,0.00,,,0.00,VWS V12.07,2013-05-04 15:30:00,
2013-05-04 10:45:00,39.9,36.3,30.03,NE,43,9.0,12.0,87,0.00,,,0.00,VWS V12.07,2013-05-04 15:45:00,
2013-05-04 11:00:00,40.2,36.3,30.03,North,0,6.0,13.0,86,0.00,,,0.00,VWS V12.07,2013-05-04 16:00:00,
2013-05-04 11:30:00,42.5,37.7,30.03,North,11,9.0,14.0,83,0.00,,,0.00,VWS V12.07,2013-05-04 16:30:00,
2013-05-04 11:45:00,42.9,37.2,30.03,North,0,6.0,11.0,80,0.00,,,0.00,VWS V12.07,2013-05-04 16:45:00,
2013-05-04 12:00:00,43.2,37.1,30.02,North,358,6.0,13.0,79,0.00,,,0.00,VWS V12.07,2013-05-04 17:00:00,
2013-05-04 12:30:00,44.3,37.6,30.02,North,0,4.0,14.0,77,0.00,,,0.00,VWS V12.07,2013-05-04 17:30:00,
2013-05-04 12:45:00,44.9,37.5,30.02,NNE,14,7.0,12.0,75,0.00,,,0.00,VWS V12.07,2013-05-04 17:45:00,
2013-05-04 13:00:00,45.8,38.0,30.02,North,0,3.0,12.0,74,0.00,,,0.00,VWS V12.07,2013-05-04 18:00:00,
2013-05-04 13:30:00,46.4,38.2,30.02,NNE,15,3.0,11.0,73,0.00,,,0.00,VWS V12.07,2013-05-04 18:30:00,
2013-05-04 13:45:00,47.0,38.8,30.02,North,10,5.0,9.0,73,0.00,,,0.00,VWS V12.07,2013-05-04 18:45:00,
2013-05-04 14:00:00,47.7,38.8,30.02,North,6,0.0,9.0,71,0.00,,,0.00,VWS V12.07,2013-05-04 19:00:00,
2013-05-04 14:30:00,48.2,38.9,30.01,North,0,0.0,9.0,70,0.00,,,0.00,VWS V12.07,2013-05-04 19:30:00,
2013-05-04 14:45:00,48.6,38.9,30.01,North,0,3.0,6.0,69,0.00,,,0.00,VWS V12.07,2013-05-04 19:45:00,
2013-05-04 15:00:00,48.9,39.2,30.02,NNW,340,5.0,7.0,69,0.00,,,0.00,VWS V12.07,2013-05-04 20:00:00,
2013-05-04 15:30:00,48.8,39.5,30.00,North,352,7.0,7.0,70,0.00,,,0.00,VWS V12.07,2013-05-04 20:30:00,
2013-05-04 15:45:00,48.9,38.8,30.00,North,354,10.0,11.0,68,0.00,,,0.00,VWS V12.07,2013-05-04 20:45:00,
2013-05-04 16:00:00,48.6,39.3,30.00,North,358,5.0,11.0,70,0.00,,,0.00,VWS V12.07,2013-05-04 21:00:00,
2013-05-04 16:30:00,48.0,39.8,30.00,North,358,4.0,11.0,73,0.00,,,0.00,VWS V12.07,2013-05-04 21:30:00,
2013-05-04 16:45:00,47.9,40.0,30.00,North,358,6.0,10.0,74,0.00,,,0.00,VWS V12.07,2013-05-04 21:45:00,
2013-05-04 17:00:00,48.3,40.4,29.99,North,0,10.0,11.0,74,0.00,,,0.00,VWS V12.07,2013-05-04 22:00:00,
2013-05-04 17:30:00,48.2,40.3,29.99,North,0,11.0,11.0,74,0.00,,,0.00,VWS V12.07,2013-05-04 22:30:00,
2013-05-04 17:45:00,48.3,40.4,30.00,North,349,4.0,13.0,74,0.00,,,0.00,VWS V12.07,2013-05-04 22:45:00,
2013-05-04 18:00:00,48.2,40.3,29.99,North,4,10.0,13.0,74,0.00,,,0.00,VWS V12.07,2013-05-04 23:00:00,
2013-05-04 18:30:00,48.0,40.5,30.00,North,353,5.0,15.0,75,0.00,,,0.00,VWS V12.07,2013-05-04 23:30:00,
2013-05-04 18:45:00,47.9,40.0,30.00,NNW,345,5.0,9.0,74,0.00,,,0.00,VWS V12.07,2013-05-04 23:45:00,
2013-05-04 19:00:00,47.7,39.1,30.01,North,358,7.0,11.0,72,0.00,,,0.00,VWS V12.07,2013-05-05 00:00:00,
2013-05-04 19:15:00,47.3,38.4,30.01,North,349,5.0,9.0,71,0.00,,,0.00,VWS V12.07,2013-05-05 00:15:00,
2013-05-04 19:30:00,47.0,38.5,30.02,NNW,338,0.0,9.0,72,0.00,,,0.00,VWS V12.07,2013-05-05 00:30:00,
2013-05-04 19:45:00,46.4,38.2,30.02,NNW,340,3.0,10.0,73,0.00,,,0.00,VWS V12.07,2013-05-05 00:45:00,
2013-05-04 20:00:00,46.1,38.3,30.02,NNW,339,0.0,10.0,74,0.00,,,0.00,VWS V12.07,2013-05-05 01:00:00,
2013-05-04 20:15:00,46.1,38.3,30.02,NNW,339,0.0,0.0,74,0.00,,,0.00,VWS V12.07,2013-05-05 01:15:00,
2013-05-04 20:30:00,46.1,38.3,30.00,NNW,339,0.0,0.0,74,0.00,,,0.00,VWS V12.07,2013-05-05 01:30:00,
2013-05-04 20:45:00,46.1,38.3,30.00,NNW,339,0.0,0.0,74,0.00,,,0.00,VWS V12.07,2013-05-05 01:45:00,
2013-05-04 21:00:00,46.1,38.3,30.01,NNW,339,0.0,0.0,74,0.00,,,0.00,VWS V12.07,2013-05-05 02:00:00,
2013-05-04 21:30:00,46.1,38.3,30.01,NNW,339,0.0,0.0,74,0.00,,,0.00,VWS V12.07,2013-05-05 02:30:00,
2013-05-04 21:45:00,46.1,38.3,30.01,NNW,339,0.0,0.0,74,0.00,,,0.00,VWS V12.07,2013-05-05 02:45:00,
2013-05-04 22:00:00,46.1,38.3,30.06,NNW,339,0.0,0.0,74,0.00,,,0.00,VWS V12.07,2013-05-05 03:00:00,
2013-05-04 22:30:00,46.1,38.3,30.06,NNW,339,0.0,0.0,74,0.00,,,0.00,VWS V12.07,2013-05-05 03:30:00,
2013-05-04 22:45:00,46.1,38.3,30.06,NNW,339,0.0,0.0,74,0.00,,,0.00,VWS V12.07,2013-05-05 03:45:00,
2013-05-04 23:00:00,46.1,38.3,30.05,NNW,339,0.0,0.0,74,0.00,,,0.00,VWS V12.07,2013-05-05 04:00:00,
2013-05-04 23:30:00,46.1,38.3,30.05,NNW,339,0.0,0.0,74,0.00,,,0.00,VWS V12.07,2013-05-05 04:30:00,
2013-05-04 23:45:00,46.1,38.3,30.05,NNW,339,0.0,0.0,74,0.00,,,0.00,VWS V12.07,2013-05-05 04:45:00,